sensor_id;sensor_type;location;lat;lon;timestamp;temperature;humidity
76172;DHT22;64929;51.178;4.138;2023-08-06T00:00:25;17.00;99.20
76172;DHT22;64929;51.178;4.138;2023-08-06T00:02:51;17.20;99.00
76172;DHT22;64929;51.178;4.138;2023-08-06T00:05:16;17.00;99.20
76172;DHT22;64929;51.178;4.138;2023-08-06T00:07:48;17.20;99.10
76172;DHT22;64929;51.178;4.138;2023-08-06T00:10:15;17.20;99.20
76172;DHT22;64929;51.178;4.138;2023-08-06T00:12:40;17.20;99.20
76172;DHT22;64929;51.178;4.138;2023-08-06T00:15:06;17.10;99.10
76172;DHT22;64929;51.178;4.138;2023-08-06T00:17:33;17.20;99.20
76172;DHT22;64929;51.178;4.138;2023-08-06T00:19:59;17.30;99.00
76172;DHT22;64929;51.178;4.138;2023-08-06T00:22:30;17.30;99.00
76172;DHT22;64929;51.178;4.138;2023-08-06T00:24:56;17.30;98.80
76172;DHT22;64929;51.178;4.138;2023-08-06T00:27:23;17.30;98.80
76172;DHT22;64929;51.178;4.138;2023-08-06T00:29:49;17.30;98.90
76172;DHT22;64929;51.178;4.138;2023-08-06T00:32:15;17.30;98.80
76172;DHT22;64929;51.178;4.138;2023-08-06T00:34:40;17.30;98.70
76172;DHT22;64929;51.178;4.138;2023-08-06T00:37:06;17.40;98.50
76172;DHT22;64929;51.178;4.138;2023-08-06T00:39:32;17.40;98.50
76172;DHT22;64929;51.178;4.138;2023-08-06T00:41:57;17.40;98.40
76172;DHT22;64929;51.178;4.138;2023-08-06T00:44:24;17.50;98.30
76172;DHT22;64929;51.178;4.138;2023-08-06T00:46:50;17.40;98.50
76172;DHT22;64929;51.178;4.138;2023-08-06T00:49:16;17.10;98.80
76172;DHT22;64929;51.178;4.138;2023-08-06T00:51:42;17.00;99.20
76172;DHT22;64929;51.178;4.138;2023-08-06T00:54:09;17.00;99.40
76172;DHT22;64929;51.178;4.138;2023-08-06T00:56:35;16.90;99.50
76172;DHT22;64929;51.178;4.138;2023-08-06T00:59:04;16.90;99.60
76172;DHT22;64929;51.178;4.138;2023-08-06T01:01:30;16.90;99.70
76172;DHT22;64929;51.178;4.138;2023-08-06T01:03:56;16.80;99.80
76172;DHT22;64929;51.178;4.138;2023-08-06T01:06:52;16.90;99.90
76172;DHT22;64929;51.178;4.138;2023-08-06T01:12:25;16.90;99.80
76172;DHT22;64929;51.178;4.138;2023-08-06T01:15:21;17.00;99.80
76172;DHT22;64929;51.178;4.138;2023-08-06T01:17:48;17.10;99.50
76172;DHT22;64929;51.178;4.138;2023-08-06T01:20:13;16.90;99.60
76172;DHT22;64929;51.178;4.138;2023-08-06T01:22:39;17.00;99.80
76172;DHT22;64929;51.178;4.138;2023-08-06T01:25:05;17.00;99.80
76172;DHT22;64929;51.178;4.138;2023-08-06T01:27:38;17.00;99.60
76172;DHT22;64929;51.178;4.138;2023-08-06T01:30:08;17.10;99.50
76172;DHT22;64929;51.178;4.138;2023-08-06T01:32:38;17.00;99.40
76172;DHT22;64929;51.178;4.138;2023-08-06T01:35:05;17.10;99.50
76172;DHT22;64929;51.178;4.138;2023-08-06T01:37:31;17.10;99.60
76172;DHT22;64929;51.178;4.138;2023-08-06T01:39:58;17.00;99.70
76172;DHT22;64929;51.178;4.138;2023-08-06T01:42:23;16.80;99.90
76172;DHT22;64929;51.178;4.138;2023-08-06T01:44:49;16.90;99.90
76172;DHT22;64929;51.178;4.138;2023-08-06T01:47:15;16.90;99.80
76172;DHT22;64929;51.178;4.138;2023-08-06T01:49:40;17.10;99.70
76172;DHT22;64929;51.178;4.138;2023-08-06T01:52:06;17.10;99.40
76172;DHT22;64929;51.178;4.138;2023-08-06T01:54:32;17.10;99.50
76172;DHT22;64929;51.178;4.138;2023-08-06T01:56:58;16.90;99.60
76172;DHT22;64929;51.178;4.138;2023-08-06T01:59:24;16.70;99.90
76172;DHT22;64929;51.178;4.138;2023-08-06T02:01:50;16.70;99.90
76172;DHT22;64929;51.178;4.138;2023-08-06T02:04:15;16.70;99.90
76172;DHT22;64929;51.178;4.138;2023-08-06T02:06:41;16.90;99.90
76172;DHT22;64929;51.178;4.138;2023-08-06T02:09:07;16.90;99.90
76172;DHT22;64929;51.178;4.138;2023-08-06T02:11:32;17.10;99.80
76172;DHT22;64929;51.178;4.138;2023-08-06T02:13:58;17.10;99.70
76172;DHT22;64929;51.178;4.138;2023-08-06T02:16:24;17.00;99.70
76172;DHT22;64929;51.178;4.138;2023-08-06T02:18:49;17.20;99.60
76172;DHT22;64929;51.178;4.138;2023-08-06T02:21:15;17.10;99.60
76172;DHT22;64929;51.178;4.138;2023-08-06T02:23:40;17.20;99.50
76172;DHT22;64929;51.178;4.138;2023-08-06T02:26:06;17.20;99.40
76172;DHT22;64929;51.178;4.138;2023-08-06T02:28:32;17.00;99.80
76172;DHT22;64929;51.178;4.138;2023-08-06T02:30:58;17.10;99.80
76172;DHT22;64929;51.178;4.138;2023-08-06T02:33:23;17.10;99.50
76172;DHT22;64929;51.178;4.138;2023-08-06T02:35:49;17.10;99.60
76172;DHT22;64929;51.178;4.138;2023-08-06T02:38:15;17.30;99.30
76172;DHT22;64929;51.178;4.138;2023-08-06T02:40:44;17.20;99.20
76172;DHT22;64929;51.178;4.138;2023-08-06T02:43:13;17.10;99.40
76172;DHT22;64929;51.178;4.138;2023-08-06T02:45:39;17.10;99.30
76172;DHT22;64929;51.178;4.138;2023-08-06T02:48:05;17.00;99.40
76172;DHT22;64929;51.178;4.138;2023-08-06T02:50:35;17.00;99.30
76172;DHT22;64929;51.178;4.138;2023-08-06T02:53:02;17.10;99.30
76172;DHT22;64929;51.178;4.138;2023-08-06T02:55:28;17.10;99.40
76172;DHT22;64929;51.178;4.138;2023-08-06T02:57:54;17.10;99.10
76172;DHT22;64929;51.178;4.138;2023-08-06T03:00:19;17.00;99.50
76172;DHT22;64929;51.178;4.138;2023-08-06T03:02:45;16.90;99.70
76172;DHT22;64929;51.178;4.138;2023-08-06T03:05:10;16.80;99.80
76172;DHT22;64929;51.178;4.138;2023-08-06T03:07:36;16.80;99.70
76172;DHT22;64929;51.178;4.138;2023-08-06T03:10:03;16.70;99.90
76172;DHT22;64929;51.178;4.138;2023-08-06T03:12:29;16.60;99.90
76172;DHT22;64929;51.178;4.138;2023-08-06T03:14:54;16.70;99.90
76172;DHT22;64929;51.178;4.138;2023-08-06T03:17:20;16.40;99.90
76172;DHT22;64929;51.178;4.138;2023-08-06T03:19:46;16.40;99.90
76172;DHT22;64929;51.178;4.138;2023-08-06T03:22:12;16.50;99.90
76172;DHT22;64929;51.178;4.138;2023-08-06T03:24:37;16.40;99.90
76172;DHT22;64929;51.178;4.138;2023-08-06T03:27:03;16.30;99.90
76172;DHT22;64929;51.178;4.138;2023-08-06T03:29:29;16.20;99.90
76172;DHT22;64929;51.178;4.138;2023-08-06T03:31:55;16.10;99.90
76172;DHT22;64929;51.178;4.138;2023-08-06T03:34:20;16.20;99.90
76172;DHT22;64929;51.178;4.138;2023-08-06T03:36:46;16.20;99.90
76172;DHT22;64929;51.178;4.138;2023-08-06T03:39:12;16.20;99.90
76172;DHT22;64929;51.178;4.138;2023-08-06T03:41:39;16.20;99.90
76172;DHT22;64929;51.178;4.138;2023-08-06T03:44:05;16.20;99.90
76172;DHT22;64929;51.178;4.138;2023-08-06T03:46:30;16.20;99.90
76172;DHT22;64929;51.178;4.138;2023-08-06T03:49:02;16.00;99.90
76172;DHT22;64929;51.178;4.138;2023-08-06T03:51:28;16.00;99.90
76172;DHT22;64929;51.178;4.138;2023-08-06T03:53:54;15.80;99.90
76172;DHT22;64929;51.178;4.138;2023-08-06T03:56:19;15.70;99.90
76172;DHT22;64929;51.178;4.138;2023-08-06T03:58:45;15.70;99.90
76172;DHT22;64929;51.178;4.138;2023-08-06T04:01:11;15.70;99.90
76172;DHT22;64929;51.178;4.138;2023-08-06T04:03:36;15.50;99.90
76172;DHT22;64929;51.178;4.138;2023-08-06T04:06:05;15.40;99.90
76172;DHT22;64929;51.178;4.138;2023-08-06T04:08:31;15.30;99.90
76172;DHT22;64929;51.178;4.138;2023-08-06T04:10:57;15.20;99.90
76172;DHT22;64929;51.178;4.138;2023-08-06T04:13:23;15.20;99.90
76172;DHT22;64929;51.178;4.138;2023-08-06T04:15:48;15.30;99.90
76172;DHT22;64929;51.178;4.138;2023-08-06T04:18:14;15.00;99.90
76172;DHT22;64929;51.178;4.138;2023-08-06T04:20:46;15.00;99.90
76172;DHT22;64929;51.178;4.138;2023-08-06T04:23:14;15.10;99.90
76172;DHT22;64929;51.178;4.138;2023-08-06T04:25:40;15.10;99.90
76172;DHT22;64929;51.178;4.138;2023-08-06T04:28:07;15.10;99.90
76172;DHT22;64929;51.178;4.138;2023-08-06T04:30:32;15.10;99.90
76172;DHT22;64929;51.178;4.138;2023-08-06T04:32:58;15.20;99.90
76172;DHT22;64929;51.178;4.138;2023-08-06T04:35:25;15.20;99.90
76172;DHT22;64929;51.178;4.138;2023-08-06T04:37:50;15.10;99.90
76172;DHT22;64929;51.178;4.138;2023-08-06T04:40:16;15.10;99.90
76172;DHT22;64929;51.178;4.138;2023-08-06T04:42:42;15.20;99.90
76172;DHT22;64929;51.178;4.138;2023-08-06T04:45:08;15.30;99.90
76172;DHT22;64929;51.178;4.138;2023-08-06T04:47:34;15.30;99.90
76172;DHT22;64929;51.178;4.138;2023-08-06T04:49:59;15.30;99.90
76172;DHT22;64929;51.178;4.138;2023-08-06T04:52:25;15.30;99.90
76172;DHT22;64929;51.178;4.138;2023-08-06T04:54:54;15.40;99.90
76172;DHT22;64929;51.178;4.138;2023-08-06T04:57:20;15.40;99.90
76172;DHT22;64929;51.178;4.138;2023-08-06T04:59:45;15.50;99.90
76172;DHT22;64929;51.178;4.138;2023-08-06T05:02:11;15.60;99.90
76172;DHT22;64929;51.178;4.138;2023-08-06T05:04:37;15.60;99.90
76172;DHT22;64929;51.178;4.138;2023-08-06T05:07:03;15.70;99.90
76172;DHT22;64929;51.178;4.138;2023-08-06T05:09:28;15.70;99.90
76172;DHT22;64929;51.178;4.138;2023-08-06T05:11:54;15.60;99.90
76172;DHT22;64929;51.178;4.138;2023-08-06T05:14:20;15.60;99.90
76172;DHT22;64929;51.178;4.138;2023-08-06T05:16:46;15.60;99.90
76172;DHT22;64929;51.178;4.138;2023-08-06T05:19:11;15.60;99.90
76172;DHT22;64929;51.178;4.138;2023-08-06T05:21:37;15.70;99.90
76172;DHT22;64929;51.178;4.138;2023-08-06T05:24:03;15.70;99.70
76172;DHT22;64929;51.178;4.138;2023-08-06T05:26:28;15.60;99.90
76172;DHT22;64929;51.178;4.138;2023-08-06T05:28:54;15.60;99.90
76172;DHT22;64929;51.178;4.138;2023-08-06T05:31:20;15.60;99.90
76172;DHT22;64929;51.178;4.138;2023-08-06T05:33:45;15.60;99.90
76172;DHT22;64929;51.178;4.138;2023-08-06T05:36:11;15.70;99.40
76172;DHT22;64929;51.178;4.138;2023-08-06T05:38:37;15.70;99.70
76172;DHT22;64929;51.178;4.138;2023-08-06T05:41:02;15.60;99.70
76172;DHT22;64929;51.178;4.138;2023-08-06T05:43:29;15.60;99.50
76172;DHT22;64929;51.178;4.138;2023-08-06T05:45:56;15.70;99.50
76172;DHT22;64929;51.178;4.138;2023-08-06T05:48:21;15.80;99.00
76172;DHT22;64929;51.178;4.138;2023-08-06T05:50:50;15.70;99.00
76172;DHT22;64929;51.178;4.138;2023-08-06T05:53:15;15.80;98.80
76172;DHT22;64929;51.178;4.138;2023-08-06T05:55:41;15.70;99.00
76172;DHT22;64929;51.178;4.138;2023-08-06T05:58:07;15.70;98.90
76172;DHT22;64929;51.178;4.138;2023-08-06T06:00:33;15.60;99.10
76172;DHT22;64929;51.178;4.138;2023-08-06T06:02:58;15.60;99.00
76172;DHT22;64929;51.178;4.138;2023-08-06T06:05:24;15.80;98.40
76172;DHT22;64929;51.178;4.138;2023-08-06T06:07:50;15.80;98.30
76172;DHT22;64929;51.178;4.138;2023-08-06T06:10:15;15.70;98.60
76172;DHT22;64929;51.178;4.138;2023-08-06T06:12:41;15.70;98.40
76172;DHT22;64929;51.178;4.138;2023-08-06T06:15:07;15.90;98.10
76172;DHT22;64929;51.178;4.138;2023-08-06T06:17:33;16.00;97.90
76172;DHT22;64929;51.178;4.138;2023-08-06T06:19:58;16.10;97.60
76172;DHT22;64929;51.178;4.138;2023-08-06T06:22:24;16.10;97.60
76172;DHT22;64929;51.178;4.138;2023-08-06T06:24:50;15.80;98.40
76172;DHT22;64929;51.178;4.138;2023-08-06T06:27:15;15.80;97.80
76172;DHT22;64929;51.178;4.138;2023-08-06T06:29:41;16.00;98.10
76172;DHT22;64929;51.178;4.138;2023-08-06T06:32:07;15.80;97.40
76172;DHT22;64929;51.178;4.138;2023-08-06T06:34:35;16.00;97.70
76172;DHT22;64929;51.178;4.138;2023-08-06T06:37:01;16.00;97.70
76172;DHT22;64929;51.178;4.138;2023-08-06T06:39:27;16.00;97.10
76172;DHT22;64929;51.178;4.138;2023-08-06T06:41:53;15.70;97.60
76172;DHT22;64929;51.178;4.138;2023-08-06T06:44:18;15.80;97.90
76172;DHT22;64929;51.178;4.138;2023-08-06T06:46:45;15.80;98.00
76172;DHT22;64929;51.178;4.138;2023-08-06T06:49:11;15.80;98.30
76172;DHT22;64929;51.178;4.138;2023-08-06T06:51:37;15.90;97.90
76172;DHT22;64929;51.178;4.138;2023-08-06T06:54:02;16.00;97.60
76172;DHT22;64929;51.178;4.138;2023-08-06T06:56:28;16.20;97.00
76172;DHT22;64929;51.178;4.138;2023-08-06T06:58:54;16.10;98.40
76172;DHT22;64929;51.178;4.138;2023-08-06T07:01:19;16.20;96.30
76172;DHT22;64929;51.178;4.138;2023-08-06T07:03:45;16.20;97.20
76172;DHT22;64929;51.178;4.138;2023-08-06T07:06:11;16.20;96.50
76172;DHT22;64929;51.178;4.138;2023-08-06T07:08:38;16.10;97.70
76172;DHT22;64929;51.178;4.138;2023-08-06T07:11:05;16.00;97.70
76172;DHT22;64929;51.178;4.138;2023-08-06T07:13:32;16.00;97.70
76172;DHT22;64929;51.178;4.138;2023-08-06T07:15:58;16.20;97.70
76172;DHT22;64929;51.178;4.138;2023-08-06T07:18:24;16.30;97.50
76172;DHT22;64929;51.178;4.138;2023-08-06T07:20:50;16.30;97.10
76172;DHT22;64929;51.178;4.138;2023-08-06T07:23:17;16.30;97.60
76172;DHT22;64929;51.178;4.138;2023-08-06T07:25:43;16.20;97.80
76172;DHT22;64929;51.178;4.138;2023-08-06T07:28:10;16.30;97.90
76172;DHT22;64929;51.178;4.138;2023-08-06T07:30:39;16.20;98.50
76172;DHT22;64929;51.178;4.138;2023-08-06T07:33:05;16.30;98.60
76172;DHT22;64929;51.178;4.138;2023-08-06T07:35:30;16.40;98.20
76172;DHT22;64929;51.178;4.138;2023-08-06T07:37:56;16.60;96.00
76172;DHT22;64929;51.178;4.138;2023-08-06T07:40:22;16.60;96.40
76172;DHT22;64929;51.178;4.138;2023-08-06T07:42:47;16.50;96.40
76172;DHT22;64929;51.178;4.138;2023-08-06T07:45:14;16.30;97.30
76172;DHT22;64929;51.178;4.138;2023-08-06T07:47:40;16.40;96.20
76172;DHT22;64929;51.178;4.138;2023-08-06T07:50:09;16.30;96.80
76172;DHT22;64929;51.178;4.138;2023-08-06T07:52:35;16.20;96.90
76172;DHT22;64929;51.178;4.138;2023-08-06T07:55:01;16.20;97.10
76172;DHT22;64929;51.178;4.138;2023-08-06T07:57:31;16.20;97.50
76172;DHT22;64929;51.178;4.138;2023-08-06T07:59:56;16.20;97.70
76172;DHT22;64929;51.178;4.138;2023-08-06T08:02:22;16.00;98.50
76172;DHT22;64929;51.178;4.138;2023-08-06T08:04:48;16.00;98.30
76172;DHT22;64929;51.178;4.138;2023-08-06T08:07:14;16.00;98.20
76172;DHT22;64929;51.178;4.138;2023-08-06T08:09:40;16.00;98.40
76172;DHT22;64929;51.178;4.138;2023-08-06T08:12:06;16.10;98.20
76172;DHT22;64929;51.178;4.138;2023-08-06T08:14:33;16.10;97.40
76172;DHT22;64929;51.178;4.138;2023-08-06T08:17:03;16.10;97.80
76172;DHT22;64929;51.178;4.138;2023-08-06T08:19:29;16.20;97.70
76172;DHT22;64929;51.178;4.138;2023-08-06T08:21:54;16.20;97.90
76172;DHT22;64929;51.178;4.138;2023-08-06T08:24:21;16.20;98.00
76172;DHT22;64929;51.178;4.138;2023-08-06T08:26:49;16.00;98.40
76172;DHT22;64929;51.178;4.138;2023-08-06T08:29:15;16.00;98.30
76172;DHT22;64929;51.178;4.138;2023-08-06T08:31:41;16.00;98.80
76172;DHT22;64929;51.178;4.138;2023-08-06T08:34:06;16.00;97.90
76172;DHT22;64929;51.178;4.138;2023-08-06T08:36:32;16.10;98.30
76172;DHT22;64929;51.178;4.138;2023-08-06T08:38:58;15.90;98.50
76172;DHT22;64929;51.178;4.138;2023-08-06T08:41:24;15.80;99.30
76172;DHT22;64929;51.178;4.138;2023-08-06T08:43:50;16.00;99.00
76172;DHT22;64929;51.178;4.138;2023-08-06T08:46:19;16.10;99.00
76172;DHT22;64929;51.178;4.138;2023-08-06T08:49:54;16.30;97.60
76172;DHT22;64929;51.178;4.138;2023-08-06T08:52:22;16.20;97.70
76172;DHT22;64929;51.178;4.138;2023-08-06T08:54:48;16.10;98.30
76172;DHT22;64929;51.178;4.138;2023-08-06T08:57:18;16.20;98.20
76172;DHT22;64929;51.178;4.138;2023-08-06T08:59:44;16.30;98.00
76172;DHT22;64929;51.178;4.138;2023-08-06T09:02:12;16.30;97.80
76172;DHT22;64929;51.178;4.138;2023-08-06T09:04:40;16.30;98.40
76172;DHT22;64929;51.178;4.138;2023-08-06T09:07:08;16.40;97.20
76172;DHT22;64929;51.178;4.138;2023-08-06T09:09:35;16.40;97.40
76172;DHT22;64929;51.178;4.138;2023-08-06T09:12:12;16.50;97.20
76172;DHT22;64929;51.178;4.138;2023-08-06T09:14:39;16.60;97.20
76172;DHT22;64929;51.178;4.138;2023-08-06T09:17:06;16.50;97.30
76172;DHT22;64929;51.178;4.138;2023-08-06T09:19:31;16.60;97.60
76172;DHT22;64929;51.178;4.138;2023-08-06T09:21:58;16.50;97.80
76172;DHT22;64929;51.178;4.138;2023-08-06T09:24:24;16.30;98.00
76172;DHT22;64929;51.178;4.138;2023-08-06T09:26:50;16.30;98.10
76172;DHT22;64929;51.178;4.138;2023-08-06T09:29:15;16.20;98.00
76172;DHT22;64929;51.178;4.138;2023-08-06T09:31:45;16.30;98.20
76172;DHT22;64929;51.178;4.138;2023-08-06T09:34:15;16.20;98.20
76172;DHT22;64929;51.178;4.138;2023-08-06T09:36:52;16.30;98.30
76172;DHT22;64929;51.178;4.138;2023-08-06T09:39:20;16.40;97.70
76172;DHT22;64929;51.178;4.138;2023-08-06T09:41:47;16.10;98.30
76172;DHT22;64929;51.178;4.138;2023-08-06T09:44:21;16.20;98.10
76172;DHT22;64929;51.178;4.138;2023-08-06T09:46:49;16.00;98.40
76172;DHT22;64929;51.178;4.138;2023-08-06T09:49:17;16.10;97.60
76172;DHT22;64929;51.178;4.138;2023-08-06T09:51:44;16.10;98.20
76172;DHT22;64929;51.178;4.138;2023-08-06T09:54:12;16.10;97.90
76172;DHT22;64929;51.178;4.138;2023-08-06T09:56:39;16.20;97.50
76172;DHT22;64929;51.178;4.138;2023-08-06T09:59:05;16.00;98.30
76172;DHT22;64929;51.178;4.138;2023-08-06T10:01:35;16.10;98.90
76172;DHT22;64929;51.178;4.138;2023-08-06T10:04:05;16.20;98.20
76172;DHT22;64929;51.178;4.138;2023-08-06T10:06:36;16.40;98.10
76172;DHT22;64929;51.178;4.138;2023-08-06T10:09:05;16.30;97.80
76172;DHT22;64929;51.178;4.138;2023-08-06T10:11:31;16.20;97.30
76172;DHT22;64929;51.178;4.138;2023-08-06T10:16:39;16.10;98.60
76172;DHT22;64929;51.178;4.138;2023-08-06T10:19:08;16.20;97.30
76172;DHT22;64929;51.178;4.138;2023-08-06T10:21:35;16.30;97.00
76172;DHT22;64929;51.178;4.138;2023-08-06T10:24:00;16.30;96.50
76172;DHT22;64929;51.178;4.138;2023-08-06T10:26:28;16.10;97.10
76172;DHT22;64929;51.178;4.138;2023-08-06T10:28:54;16.00;96.70
76172;DHT22;64929;51.178;4.138;2023-08-06T10:31:53;15.90;96.80
76172;DHT22;64929;51.178;4.138;2023-08-06T10:34:19;16.00;96.20
76172;DHT22;64929;51.178;4.138;2023-08-06T10:36:44;15.90;96.80
76172;DHT22;64929;51.178;4.138;2023-08-06T10:39:14;16.20;96.40
76172;DHT22;64929;51.178;4.138;2023-08-06T10:41:42;16.20;96.50
76172;DHT22;64929;51.178;4.138;2023-08-06T10:44:10;16.40;95.80
76172;DHT22;64929;51.178;4.138;2023-08-06T10:46:37;16.30;96.00
76172;DHT22;64929;51.178;4.138;2023-08-06T10:49:04;16.30;96.00
76172;DHT22;64929;51.178;4.138;2023-08-06T10:51:30;16.40;96.60
76172;DHT22;64929;51.178;4.138;2023-08-06T10:53:56;16.30;96.60
76172;DHT22;64929;51.178;4.138;2023-08-06T10:56:24;16.30;96.40
76172;DHT22;64929;51.178;4.138;2023-08-06T10:58:56;16.20;97.50
76172;DHT22;64929;51.178;4.138;2023-08-06T11:01:28;16.20;97.70
76172;DHT22;64929;51.178;4.138;2023-08-06T11:03:55;16.20;97.20
76172;DHT22;64929;51.178;4.138;2023-08-06T11:06:22;16.00;97.80
76172;DHT22;64929;51.178;4.138;2023-08-06T11:08:50;15.90;97.70
76172;DHT22;64929;51.178;4.138;2023-08-06T11:11:17;15.80;97.80
76172;DHT22;64929;51.178;4.138;2023-08-06T11:13:44;15.80;97.90
76172;DHT22;64929;51.178;4.138;2023-08-06T11:16:18;15.80;98.00
76172;DHT22;64929;51.178;4.138;2023-08-06T11:18:45;15.80;97.90
76172;DHT22;64929;51.178;4.138;2023-08-06T11:21:11;15.90;97.90
76172;DHT22;64929;51.178;4.138;2023-08-06T11:23:40;15.80;98.10
76172;DHT22;64929;51.178;4.138;2023-08-06T11:26:07;15.90;97.90
76172;DHT22;64929;51.178;4.138;2023-08-06T11:28:33;15.90;97.80
76172;DHT22;64929;51.178;4.138;2023-08-06T11:30:59;16.00;97.40
76172;DHT22;64929;51.178;4.138;2023-08-06T11:33:28;16.00;97.70
76172;DHT22;64929;51.178;4.138;2023-08-06T11:35:58;16.10;97.30
76172;DHT22;64929;51.178;4.138;2023-08-06T11:38:28;16.10;97.80
76172;DHT22;64929;51.178;4.138;2023-08-06T11:40:54;16.10;97.00
76172;DHT22;64929;51.178;4.138;2023-08-06T11:43:20;16.00;97.40
76172;DHT22;64929;51.178;4.138;2023-08-06T11:45:50;16.10;97.00
76172;DHT22;64929;51.178;4.138;2023-08-06T11:48:18;16.10;96.60
76172;DHT22;64929;51.178;4.138;2023-08-06T11:50:44;16.10;96.40
76172;DHT22;64929;51.178;4.138;2023-08-06T11:53:13;16.10;96.00
76172;DHT22;64929;51.178;4.138;2023-08-06T11:55:39;16.30;95.10
76172;DHT22;64929;51.178;4.138;2023-08-06T11:58:06;16.20;96.20
76172;DHT22;64929;51.178;4.138;2023-08-06T12:00:32;16.10;96.20
76172;DHT22;64929;51.178;4.138;2023-08-06T12:02:58;16.00;96.70
76172;DHT22;64929;51.178;4.138;2023-08-06T12:05:29;16.00;95.80
76172;DHT22;64929;51.178;4.138;2023-08-06T12:08:00;16.10;96.40
76172;DHT22;64929;51.178;4.138;2023-08-06T12:10:27;16.20;96.00
76172;DHT22;64929;51.178;4.138;2023-08-06T12:12:53;16.20;97.20
76172;DHT22;64929;51.178;4.138;2023-08-06T12:15:19;16.10;96.60
76172;DHT22;64929;51.178;4.138;2023-08-06T12:17:45;16.10;96.60
76172;DHT22;64929;51.178;4.138;2023-08-06T12:20:11;16.10;96.30
76172;DHT22;64929;51.178;4.138;2023-08-06T12:22:37;16.10;96.40
76172;DHT22;64929;51.178;4.138;2023-08-06T12:25:10;16.10;97.60
76172;DHT22;64929;51.178;4.138;2023-08-06T12:27:41;16.10;96.70
76172;DHT22;64929;51.178;4.138;2023-08-06T12:30:08;16.00;97.10
76172;DHT22;64929;51.178;4.138;2023-08-06T12:32:34;16.00;97.50
76172;DHT22;64929;51.178;4.138;2023-08-06T12:35:00;15.90;97.00
76172;DHT22;64929;51.178;4.138;2023-08-06T12:37:26;15.80;97.10
76172;DHT22;64929;51.178;4.138;2023-08-06T12:39:52;15.90;97.90
76172;DHT22;64929;51.178;4.138;2023-08-06T12:42:17;15.90;98.50
76172;DHT22;64929;51.178;4.138;2023-08-06T12:44:43;16.00;98.00
76172;DHT22;64929;51.178;4.138;2023-08-06T12:47:09;16.10;97.70
76172;DHT22;64929;51.178;4.138;2023-08-06T12:49:35;16.00;97.70
76172;DHT22;64929;51.178;4.138;2023-08-06T12:52:01;16.00;97.90
76172;DHT22;64929;51.178;4.138;2023-08-06T12:54:27;15.90;97.30
76172;DHT22;64929;51.178;4.138;2023-08-06T12:56:54;15.80;97.90
76172;DHT22;64929;51.178;4.138;2023-08-06T12:59:19;15.60;97.80
76172;DHT22;64929;51.178;4.138;2023-08-06T13:01:46;15.60;97.40
76172;DHT22;64929;51.178;4.138;2023-08-06T13:04:11;15.50;97.90
76172;DHT22;64929;51.178;4.138;2023-08-06T13:06:37;15.30;98.90
76172;DHT22;64929;51.178;4.138;2023-08-06T13:09:10;15.30;98.90
76172;DHT22;64929;51.178;4.138;2023-08-06T13:11:37;15.30;99.50
76172;DHT22;64929;51.178;4.138;2023-08-06T13:14:10;15.30;98.80
76172;DHT22;64929;51.178;4.138;2023-08-06T13:16:37;15.30;99.10
76172;DHT22;64929;51.178;4.138;2023-08-06T13:19:04;15.30;99.00
76172;DHT22;64929;51.178;4.138;2023-08-06T13:24:05;15.10;99.30
76172;DHT22;64929;51.178;4.138;2023-08-06T13:26:31;15.00;99.30
76172;DHT22;64929;51.178;4.138;2023-08-06T13:28:58;15.00;99.80
76172;DHT22;64929;51.178;4.138;2023-08-06T13:31:24;15.10;99.60
76172;DHT22;64929;51.178;4.138;2023-08-06T13:33:50;15.00;99.80
76172;DHT22;64929;51.178;4.138;2023-08-06T13:36:16;15.10;99.40
76172;DHT22;64929;51.178;4.138;2023-08-06T13:38:42;15.20;99.40
76172;DHT22;64929;51.178;4.138;2023-08-06T13:41:08;15.10;99.50
76172;DHT22;64929;51.178;4.138;2023-08-06T13:43:34;15.10;99.50
76172;DHT22;64929;51.178;4.138;2023-08-06T13:45:59;15.30;99.30
76172;DHT22;64929;51.178;4.138;2023-08-06T13:48:25;15.20;99.60
76172;DHT22;64929;51.178;4.138;2023-08-06T13:50:51;15.30;99.50
76172;DHT22;64929;51.178;4.138;2023-08-06T13:53:16;15.20;99.30
76172;DHT22;64929;51.178;4.138;2023-08-06T13:55:42;15.20;99.90
76172;DHT22;64929;51.178;4.138;2023-08-06T13:58:08;15.20;99.90
76172;DHT22;64929;51.178;4.138;2023-08-06T14:00:35;15.20;99.80
76172;DHT22;64929;51.178;4.138;2023-08-06T14:03:01;15.20;99.70
76172;DHT22;64929;51.178;4.138;2023-08-06T14:05:27;15.10;99.90
76172;DHT22;64929;51.178;4.138;2023-08-06T14:07:52;15.00;99.90
76172;DHT22;64929;51.178;4.138;2023-08-06T14:10:18;14.80;99.80
76172;DHT22;64929;51.178;4.138;2023-08-06T14:12:44;14.70;99.80
76172;DHT22;64929;51.178;4.138;2023-08-06T14:15:10;14.70;99.90
76172;DHT22;64929;51.178;4.138;2023-08-06T14:17:36;14.90;99.80
76172;DHT22;64929;51.178;4.138;2023-08-06T14:20:03;14.80;99.90
76172;DHT22;64929;51.178;4.138;2023-08-06T14:22:30;15.00;99.90
76172;DHT22;64929;51.178;4.138;2023-08-06T14:24:57;14.90;99.90
76172;DHT22;64929;51.178;4.138;2023-08-06T14:27:23;14.90;99.90
76172;DHT22;64929;51.178;4.138;2023-08-06T14:29:49;15.00;99.90
76172;DHT22;64929;51.178;4.138;2023-08-06T14:32:14;15.00;99.90
76172;DHT22;64929;51.178;4.138;2023-08-06T14:34:43;15.10;99.90
76172;DHT22;64929;51.178;4.138;2023-08-06T14:37:09;15.20;99.50
76172;DHT22;64929;51.178;4.138;2023-08-06T14:39:35;15.30;99.30
76172;DHT22;64929;51.178;4.138;2023-08-06T14:42:01;15.40;99.10
76172;DHT22;64929;51.178;4.138;2023-08-06T14:44:27;15.30;98.80
76172;DHT22;64929;51.178;4.138;2023-08-06T14:46:53;15.40;99.50
76172;DHT22;64929;51.178;4.138;2023-08-06T14:49:19;15.40;99.60
76172;DHT22;64929;51.178;4.138;2023-08-06T14:51:45;15.40;99.60
76172;DHT22;64929;51.178;4.138;2023-08-06T14:54:11;15.40;99.90
76172;DHT22;64929;51.178;4.138;2023-08-06T14:56:36;15.40;99.90
76172;DHT22;64929;51.178;4.138;2023-08-06T14:59:02;15.50;99.90
76172;DHT22;64929;51.178;4.138;2023-08-06T15:01:28;15.70;99.40
76172;DHT22;64929;51.178;4.138;2023-08-06T15:03:53;15.80;98.60
76172;DHT22;64929;51.178;4.138;2023-08-06T15:06:19;15.60;99.10
76172;DHT22;64929;51.178;4.138;2023-08-06T15:08:45;15.60;99.20
76172;DHT22;64929;51.178;4.138;2023-08-06T15:11:13;15.70;98.70
76172;DHT22;64929;51.178;4.138;2023-08-06T15:13:39;15.70;99.20
76172;DHT22;64929;51.178;4.138;2023-08-06T15:16:04;15.90;98.40
76172;DHT22;64929;51.178;4.138;2023-08-06T15:18:30;15.80;98.90
76172;DHT22;64929;51.178;4.138;2023-08-06T15:20:56;15.80;99.00
76172;DHT22;64929;51.178;4.138;2023-08-06T15:23:23;16.10;98.50
76172;DHT22;64929;51.178;4.138;2023-08-06T15:25:49;16.10;97.90
76172;DHT22;64929;51.178;4.138;2023-08-06T15:28:15;15.80;98.70
76172;DHT22;64929;51.178;4.138;2023-08-06T15:30:42;15.90;97.30
76172;DHT22;64929;51.178;4.138;2023-08-06T15:33:14;16.00;96.90
76172;DHT22;64929;51.178;4.138;2023-08-06T15:35:40;16.00;97.40